createdAt,value
2018-02-19T00:01:14.228Z,44.77
2018-02-19T00:03:42.595Z,44.85
2018-02-19T00:06:10.957Z,44.90
2018-02-19T00:08:39.724Z,45.91
2018-02-19T00:11:08.082Z,46.56
2018-02-19T00:13:36.456Z,46.21
2018-02-19T00:16:04.812Z,46.16
2018-02-19T00:18:33.216Z,46.58
2018-02-19T00:21:01.588Z,46.79
2018-02-19T00:23:30.002Z,47.13
2018-02-19T00:25:58.359Z,47.23
2018-02-19T00:28:26.732Z,47.35
2018-02-19T00:30:55.102Z,46.76
2018-02-19T00:33:23.499Z,47.26
2018-02-19T00:35:51.875Z,47.11
2018-02-19T00:38:20.261Z,47.68
2018-02-19T00:40:48.625Z,47.35
2018-02-19T00:43:16.997Z,47.59
2018-02-19T00:45:45.409Z,47.67
2018-02-19T00:48:13.820Z,47.92
2018-02-19T00:50:42.188Z,48.23
2018-02-19T00:53:10.947Z,47.54
2018-02-19T00:55:39.302Z,47.67
2018-02-19T00:58:07.678Z,47.59
2018-02-19T01:00:36.053Z,47.93
2018-02-19T01:03:04.425Z,47.46
2018-02-19T01:05:32.780Z,47.41
2018-02-19T01:08:01.159Z,46.75
2018-02-19T01:10:29.520Z,46.93
2018-02-19T01:12:58.293Z,47.23
2018-02-19T01:15:26.652Z,46.75
2018-02-19T01:17:55.025Z,46.63
2018-02-19T01:20:23.392Z,46.74
2018-02-19T01:22:51.765Z,46.69
2018-02-19T01:25:20.121Z,47.03
2018-02-19T01:27:48.481Z,47.00
2018-02-19T01:30:17.265Z,47.97
2018-02-19T01:32:46.035Z,47.67
2018-02-19T01:35:14.493Z,47.51
2018-02-19T01:37:42.860Z,47.58
2018-02-19T01:40:11.251Z,47.75
2018-02-19T01:42:40.249Z,47.73
2018-02-19T01:45:08.645Z,47.84
2018-02-19T01:47:37.045Z,47.65
2018-02-19T01:50:16.695Z,47.76
2018-02-19T01:52:45.508Z,47.99
2018-02-19T01:55:13.885Z,48.02
2018-02-19T01:57:42.288Z,48.05
2018-02-19T02:00:10.669Z,47.91
2018-02-19T02:02:39.040Z,47.40
2018-02-19T02:05:07.405Z,47.51
2018-02-19T02:07:35.761Z,47.56
2018-02-19T02:10:04.114Z,47.58
2018-02-19T02:12:32.929Z,47.25
2018-02-19T02:15:01.323Z,46.92
2018-02-19T02:20:04.426Z,47.46
2018-02-19T02:22:32.788Z,47.40
2018-02-19T02:25:01.537Z,46.97
2018-02-19T02:27:29.940Z,47.52
2018-02-19T02:29:58.360Z,47.59
2018-02-19T02:32:26.701Z,47.17
2018-02-19T02:34:55.477Z,47.44
2018-02-19T02:37:23.816Z,48.02
2018-02-19T02:39:52.177Z,47.61
2018-02-19T02:42:20.555Z,47.27
2018-02-19T02:44:48.913Z,47.46
2018-02-19T02:47:17.678Z,48.48
2018-02-19T02:49:46.061Z,48.60
2018-02-19T02:52:14.409Z,48.32
2018-02-19T02:54:42.776Z,48.31
2018-02-19T02:57:11.150Z,48.06
2018-02-19T02:59:39.517Z,48.10
2018-02-19T03:02:08.010Z,48.49
2018-02-19T03:04:36.408Z,48.30
2018-02-19T03:07:04.784Z,48.36
2018-02-19T03:09:33.129Z,48.44
2018-02-19T03:12:01.504Z,48.03
2018-02-19T03:14:29.868Z,47.99
2018-02-19T03:16:58.633Z,48.54
2018-02-19T03:19:27.417Z,49.08
2018-02-19T03:21:55.773Z,49.07
2018-02-19T03:24:24.166Z,49.01
2018-02-19T03:26:53.421Z,49.56
2018-02-19T03:29:21.832Z,49.66
2018-02-19T03:31:50.220Z,49.25
2018-02-19T03:34:18.576Z,49.80
2018-02-19T03:36:46.960Z,49.95
2018-02-19T03:39:15.325Z,50.61
2018-02-19T03:41:43.679Z,50.47
2018-02-19T03:44:12.046Z,49.62
2018-02-19T03:46:40.822Z,49.16
2018-02-19T03:49:09.580Z,48.45
2018-02-19T03:51:37.940Z,49.33
2018-02-19T03:54:06.315Z,48.83
2018-02-19T03:56:34.707Z,48.99
2018-02-19T03:59:03.065Z,49.23
2018-02-19T04:01:31.443Z,48.98
2018-02-19T04:03:59.801Z,48.33
2018-02-19T04:06:28.586Z,48.31
2018-02-19T04:08:57.367Z,48.06
2018-02-19T04:11:25.811Z,49.09
2018-02-19T04:13:54.225Z,49.41
2018-02-19T04:16:22.567Z,49.22
2018-02-19T04:18:59.497Z,49.86
2018-02-19T04:21:27.924Z,49.55
2018-02-19T04:23:56.303Z,49.69
2018-02-19T04:26:24.680Z,50.36
2018-02-19T04:28:53.159Z,51.17
2018-02-19T04:31:21.514Z,51.75
2018-02-19T04:33:49.880Z,51.23
2018-02-19T04:36:18.249Z,50.65
2018-02-19T04:38:47.028Z,50.87
2018-02-19T04:41:16.073Z,50.97
2018-02-19T04:43:44.438Z,51.02
2018-02-19T04:46:12.982Z,50.31
2018-02-19T04:48:41.746Z,50.48
2018-02-19T04:51:10.216Z,50.77
2018-02-19T04:53:39.529Z,51.46
2018-02-19T04:56:07.893Z,50.88
2018-02-19T04:58:36.497Z,51.22
2018-02-19T05:01:04.869Z,50.94
2018-02-19T05:03:33.232Z,50.92
2018-02-19T05:06:01.611Z,51.58
2018-02-19T05:08:29.990Z,52.28
2018-02-19T05:10:58.370Z,51.68
2018-02-19T05:13:26.744Z,51.31
2018-02-19T05:15:55.231Z,51.50
2018-02-19T05:18:23.610Z,51.94
2018-02-19T05:20:51.980Z,51.58
2018-02-19T05:23:20.477Z,51.62
2018-02-19T05:25:48.840Z,51.47
2018-02-19T05:28:17.203Z,51.57
2018-02-19T05:30:45.584Z,51.48
2018-02-19T05:33:13.961Z,52.52
2018-02-19T05:35:42.308Z,51.77
2018-02-19T05:38:11.152Z,52.08
2018-02-19T05:40:39.574Z,52.29
2018-02-19T05:43:08.415Z,52.25
2018-02-19T05:45:36.936Z,52.63
2018-02-19T05:48:05.692Z,52.33
2018-02-19T05:50:34.213Z,52.03
2018-02-19T05:53:03.056Z,52.00
2018-02-19T05:55:31.438Z,52.22
2018-02-19T05:57:59.811Z,51.97
2018-02-19T06:00:28.204Z,51.65
2018-02-19T06:02:56.574Z,52.84
2018-02-19T06:05:25.954Z,52.63
2018-02-19T06:07:54.350Z,52.57
2018-02-19T06:10:22.708Z,52.31
2018-02-19T06:12:51.076Z,52.86
2018-02-19T06:15:19.507Z,52.79
2018-02-19T06:17:47.867Z,52.68
2018-02-19T06:20:16.245Z,52.34
2018-02-19T06:22:44.671Z,53.17
2018-02-19T06:25:13.524Z,53.59
2018-02-19T06:27:41.998Z,52.78
2018-02-19T06:30:10.380Z,52.77
2018-02-19T06:32:38.752Z,52.42
2018-02-19T06:35:07.213Z,52.00
2018-02-19T06:37:35.568Z,52.37
2018-02-19T06:40:04.421Z,51.94
2018-02-19T06:42:32.895Z,52.06
2018-02-19T06:45:01.257Z,51.98
2018-02-19T06:47:29.655Z,52.07
2018-02-19T06:49:58.020Z,51.90
2018-02-19T06:52:26.506Z,51.70
2018-02-19T06:54:54.880Z,50.74
2018-02-19T06:57:23.249Z,50.93
2018-02-19T06:59:51.638Z,51.00
2018-02-19T07:02:20.020Z,50.08
2018-02-19T07:04:48.699Z,50.05
2018-02-19T07:07:17.095Z,49.26
2018-02-19T07:09:45.503Z,48.44
2018-02-19T07:12:14.026Z,48.58
2018-02-19T07:14:42.409Z,47.16
2018-02-19T07:17:10.816Z,46.42
2018-02-19T07:19:40.210Z,46.53
2018-02-19T07:22:08.581Z,45.97
2018-02-19T07:24:36.937Z,47.00
2018-02-19T07:27:05.314Z,46.76
2018-02-19T07:29:33.664Z,46.68
2018-02-19T07:32:02.432Z,46.62
2018-02-19T07:34:30.813Z,46.57
2018-02-19T07:36:59.585Z,46.94
2018-02-19T07:39:28.486Z,46.94
2018-02-19T07:41:57.265Z,46.74
2018-02-19T07:44:25.649Z,46.71
2018-02-19T07:46:54.019Z,46.02
2018-02-19T07:49:22.385Z,45.55
2018-02-19T07:51:51.800Z,44.48
2018-02-19T07:54:20.177Z,44.28
2018-02-19T07:56:48.533Z,43.08
2018-02-19T07:59:16.902Z,42.11
2018-02-19T08:01:45.253Z,41.34
2018-02-19T08:04:13.635Z,41.07
2018-02-19T08:06:42.514Z,38.28
2018-02-19T08:09:10.956Z,37.59
2018-02-19T08:11:39.336Z,36.42
2018-02-19T08:14:07.811Z,35.78
2018-02-19T08:16:36.222Z,36.67
2018-02-19T08:19:04.587Z,37.37
2018-02-19T08:21:32.951Z,37.28
2018-02-19T08:24:01.341Z,36.97
2018-02-19T08:26:29.691Z,36.59
2018-02-19T08:28:58.044Z,35.36
2018-02-19T08:31:26.800Z,34.75
2018-02-19T08:33:55.268Z,34.91
2018-02-19T08:36:23.642Z,34.19
2018-02-19T08:38:53.067Z,33.77
2018-02-19T08:41:21.459Z,33.50
2018-02-19T08:43:50.242Z,34.02
2018-02-19T08:46:18.705Z,34.59
2018-02-19T08:48:47.091Z,37.20
2018-02-19T08:51:15.632Z,37.79
2018-02-19T08:53:44.007Z,36.54
2018-02-19T08:56:12.381Z,36.57
2018-02-19T08:58:40.733Z,36.83
2018-02-19T09:01:09.904Z,37.94
2018-02-19T09:03:38.276Z,38.06
2018-02-19T09:06:06.654Z,36.59
2018-02-19T09:08:35.039Z,36.07
2018-02-19T09:11:03.393Z,35.55
2018-02-19T09:13:31.795Z,34.76
2018-02-19T09:16:00.160Z,34.60
2018-02-19T09:18:28.552Z,34.18
2018-02-19T09:20:56.912Z,33.74
2018-02-19T09:23:25.398Z,34.61
2018-02-19T09:25:53.834Z,33.37
2018-02-19T09:28:22.257Z,32.76
2018-02-19T09:30:51.045Z,31.77
2018-02-19T09:33:19.425Z,31.26
2018-02-19T09:35:47.840Z,31.75
2018-02-19T09:38:16.596Z,31.89
2018-02-19T09:40:44.964Z,32.04
2018-02-19T09:43:13.357Z,32.07
2018-02-19T09:45:41.724Z,31.99
2018-02-19T09:48:10.136Z,33.12
2018-02-19T09:50:38.692Z,32.74
2018-02-19T09:53:07.080Z,32.28
2018-02-19T09:55:35.440Z,32.76
2018-02-19T09:58:03.824Z,32.56
2018-02-19T10:00:32.199Z,32.03
2018-02-19T10:03:00.609Z,32.61
2018-02-19T10:05:29.017Z,32.19
2018-02-19T10:07:57.459Z,32.55
2018-02-19T10:10:25.816Z,31.65
2018-02-19T10:12:54.179Z,31.24
2018-02-19T10:15:22.577Z,31.46
2018-02-19T10:17:50.938Z,31.54
2018-02-19T10:20:19.309Z,30.87
2018-02-19T10:22:47.703Z,31.61
2018-02-19T10:25:16.064Z,31.16
2018-02-19T10:27:44.451Z,30.71
2018-02-19T10:30:12.860Z,30.69
2018-02-19T10:32:41.933Z,31.61
2018-02-19T10:35:10.308Z,31.89
2018-02-19T10:37:38.673Z,31.85
2018-02-19T10:40:07.077Z,31.47
2018-02-19T10:42:35.436Z,31.56
2018-02-19T10:45:03.810Z,31.39
2018-02-19T10:47:32.229Z,31.33
2018-02-19T10:50:00.607Z,29.94
2018-02-19T10:52:28.977Z,30.26
2018-02-19T10:54:57.354Z,29.78
2018-02-19T10:57:25.733Z,31.14
2018-02-19T10:59:54.108Z,31.30
2018-02-19T11:02:23.037Z,30.23
2018-02-19T11:04:51.411Z,30.22
2018-02-19T11:07:20.194Z,30.56
2018-02-19T11:09:48.577Z,30.44
2018-02-19T11:12:16.936Z,29.88
2018-02-19T11:14:45.314Z,29.27
2018-02-19T11:17:13.691Z,28.60
2018-02-19T11:19:42.055Z,28.54
2018-02-19T11:22:10.470Z,29.11
2018-02-19T11:24:38.835Z,28.53
2018-02-19T11:27:07.312Z,28.56
2018-02-19T11:29:35.700Z,28.13
2018-02-19T11:32:04.080Z,28.53
2018-02-19T11:34:32.451Z,28.51
2018-02-19T11:37:00.957Z,28.96
2018-02-19T11:39:29.324Z,29.68
2018-02-19T11:41:57.686Z,29.90
2018-02-19T11:44:26.081Z,30.46
2018-02-19T11:46:54.447Z,32.13
2018-02-19T11:49:22.908Z,32.22
2018-02-19T11:51:51.302Z,32.05
2018-02-19T11:54:19.692Z,32.55
2018-02-19T11:56:48.073Z,33.08
2018-02-19T11:59:16.436Z,33.38
2018-02-19T12:01:44.814Z,33.06
2018-02-19T12:04:13.196Z,33.08
2018-02-19T12:06:41.571Z,33.24
2018-02-19T12:09:09.949Z,33.37
2018-02-19T12:11:38.337Z,33.97
2018-02-19T12:14:06.707Z,33.50
2018-02-19T12:16:35.073Z,33.37
2018-02-19T12:19:03.440Z,34.53
2018-02-19T12:21:31.810Z,34.53
2018-02-19T12:24:00.196Z,34.60
2018-02-19T12:26:28.560Z,34.59
2018-02-19T12:28:56.920Z,34.04
2018-02-19T12:31:25.693Z,33.50
2018-02-19T12:33:54.055Z,33.46
2018-02-19T12:36:22.424Z,33.36
2018-02-19T12:38:50.800Z,33.26
2018-02-19T12:41:20.207Z,33.21
2018-02-19T12:43:48.571Z,34.18
2018-02-19T12:46:16.941Z,33.32
2018-02-19T12:48:45.300Z,33.20
2018-02-19T12:51:13.670Z,33.77
2018-02-19T12:53:42.452Z,34.37
2018-02-19T12:56:11.200Z,34.48
2018-02-19T12:58:39.568Z,34.87
2018-02-19T13:01:07.928Z,35.67
2018-02-19T13:03:36.300Z,35.16
2018-02-19T13:06:04.665Z,35.48
2018-02-19T13:08:33.421Z,35.40
2018-02-19T13:11:01.792Z,35.61
2018-02-19T13:13:30.170Z,35.14
2018-02-19T13:15:58.550Z,35.38
2018-02-19T13:18:26.912Z,35.23
2018-02-19T13:20:55.277Z,35.85
2018-02-19T13:23:23.653Z,36.47
2018-02-19T13:25:52.016Z,36.52
2018-02-19T13:28:20.363Z,35.90
2018-02-19T13:30:49.141Z,35.90
2018-02-19T13:33:17.604Z,35.13
2018-02-19T13:35:45.957Z,34.57
2018-02-19T13:38:14.359Z,33.56
2018-02-19T13:40:42.713Z,33.01
2018-02-19T13:43:11.068Z,33.54
2018-02-19T13:45:40.384Z,33.46
2018-02-19T13:48:08.749Z,33.11
2018-02-19T13:50:37.128Z,33.22
2018-02-19T13:53:05.490Z,33.14
2018-02-19T13:55:34.264Z,32.72
2018-02-19T13:58:02.644Z,33.04
2018-02-19T14:00:31.003Z,33.33
2018-02-19T14:02:59.368Z,33.24
2018-02-19T14:05:27.749Z,33.17
2018-02-19T14:07:56.181Z,33.90
2018-02-19T14:10:24.936Z,33.28
2018-02-19T14:12:53.321Z,33.77
2018-02-19T14:15:21.680Z,33.09
2018-02-19T14:17:50.047Z,32.98
2018-02-19T14:20:18.421Z,32.83
2018-02-19T14:22:46.785Z,32.41
2018-02-19T14:25:15.224Z,31.99
2018-02-19T14:27:43.989Z,32.20
2018-02-19T14:30:12.378Z,32.08
2018-02-19T14:32:42.232Z,32.21
2018-02-19T14:35:10.601Z,32.53
2018-02-19T14:37:39.371Z,33.51
2018-02-19T14:40:07.745Z,33.93
2018-02-19T14:42:36.123Z,33.63
2018-02-19T14:45:04.476Z,33.04
2018-02-19T14:47:32.837Z,34.00
2018-02-19T14:50:01.221Z,33.34
2018-02-19T14:52:29.593Z,33.56
2018-02-19T14:54:57.980Z,34.51
2018-02-19T14:57:26.341Z,34.41
2018-02-19T14:59:54.732Z,34.78
2018-02-19T15:02:23.098Z,36.27
2018-02-19T15:04:51.471Z,36.30
2018-02-19T15:07:19.865Z,35.66
2018-02-19T15:09:48.233Z,35.57
2018-02-19T15:12:16.585Z,35.43
2018-02-19T15:14:45.344Z,36.77
2018-02-19T15:17:13.712Z,37.35
2018-02-19T15:19:42.108Z,37.19
2018-02-19T15:22:10.504Z,36.52
2018-02-19T15:24:38.864Z,36.51
2018-02-19T15:27:07.252Z,36.79
2018-02-19T15:29:35.643Z,36.72
2018-02-19T15:32:04.415Z,37.71
2018-02-19T15:34:32.813Z,37.25
2018-02-19T15:37:01.560Z,36.92
2018-02-19T15:39:29.924Z,36.62
2018-02-19T15:41:58.322Z,37.07
2018-02-19T15:44:26.712Z,37.01
2018-02-19T15:46:55.078Z,36.72
2018-02-19T15:49:23.518Z,36.46
2018-02-19T15:51:51.845Z,36.55
2018-02-19T15:54:20.226Z,36.79
2018-02-19T15:56:48.589Z,37.64
2018-02-19T15:59:16.948Z,37.61
2018-02-19T16:01:45.335Z,37.03
2018-02-19T16:04:13.698Z,37.13
2018-02-19T16:06:42.059Z,37.88
2018-02-19T16:09:10.432Z,37.64
2018-02-19T16:11:39.202Z,37.53
2018-02-19T16:14:07.564Z,38.05
2018-02-19T16:16:36.267Z,38.12
2018-02-19T16:19:04.661Z,38.27
2018-02-19T16:21:33.413Z,38.42
2018-02-19T16:24:01.878Z,38.44
2018-02-19T16:26:30.258Z,38.34
2018-02-19T16:28:58.636Z,38.67
2018-02-19T16:31:27.011Z,38.72
2018-02-19T16:33:55.389Z,38.48
2018-02-19T16:36:23.809Z,38.41
2018-02-19T16:38:52.157Z,38.56
2018-02-19T16:41:20.532Z,38.58
2018-02-19T16:43:48.888Z,39.65
2018-02-19T16:46:17.257Z,39.16
2018-02-19T16:48:45.637Z,39.38
2018-02-19T16:51:13.984Z,39.25
2018-02-19T16:53:42.743Z,39.45
2018-02-19T16:56:11.234Z,39.94
2018-02-19T16:58:39.605Z,40.93
2018-02-19T17:01:07.969Z,41.50
2018-02-19T17:03:37.257Z,42.16
2018-02-19T17:06:05.651Z,41.93
2018-02-19T17:08:34.002Z,42.18
2018-02-19T17:11:02.404Z,41.40
2018-02-19T17:13:30.784Z,41.42
2018-02-19T17:15:59.144Z,41.93
2018-02-19T17:18:27.624Z,41.51
2018-02-19T17:20:56.008Z,41.34
2018-02-19T17:23:24.402Z,41.25
2018-02-19T17:25:52.862Z,41.43
2018-02-19T17:28:21.237Z,42.28
2018-02-19T17:30:49.608Z,43.01
2018-02-19T17:33:18.020Z,42.24
2018-02-19T17:35:51.228Z,42.88
2018-02-19T17:38:19.602Z,42.25
2018-02-19T17:40:47.952Z,42.34
2018-02-19T17:43:16.320Z,41.88
2018-02-19T17:45:44.723Z,41.71
2018-02-19T17:48:13.116Z,42.09
2018-02-19T17:50:41.462Z,41.69
2018-02-19T17:53:09.843Z,41.88
2018-02-19T17:55:38.195Z,41.59
2018-02-19T17:58:06.944Z,42.07
2018-02-19T18:00:35.328Z,41.69
2018-02-19T18:03:03.683Z,42.07
2018-02-19T18:05:32.036Z,42.00
2018-02-19T18:08:00.427Z,42.03
2018-02-19T18:10:28.784Z,41.85
2018-02-19T18:12:57.144Z,41.94
2018-02-19T18:15:25.537Z,41.60
2018-02-19T18:17:54.346Z,41.50
2018-02-19T18:20:22.797Z,41.72
2018-02-19T18:22:51.655Z,41.84
2018-02-19T18:25:20.054Z,41.54
2018-02-19T18:27:48.424Z,41.63
2018-02-19T18:30:16.905Z,41.68
2018-02-19T18:32:45.272Z,41.81
2018-02-19T18:35:13.648Z,41.17
2018-02-19T18:37:42.040Z,41.22
2018-02-19T18:40:10.522Z,41.36
2018-02-19T18:42:39.063Z,41.28
2018-02-19T18:45:07.428Z,42.57
2018-02-19T18:47:35.815Z,42.24
2018-02-19T18:50:04.227Z,42.21
2018-02-19T18:52:32.575Z,41.40
2018-02-19T18:55:00.975Z,41.57
2018-02-19T18:57:30.211Z,41.55
2018-02-19T18:59:59.064Z,41.45
2018-02-19T19:02:27.425Z,42.82
2018-02-19T19:04:55.821Z,42.35
2018-02-19T19:10:58.573Z,41.82
2018-02-19T19:13:27.005Z,42.37
2018-02-19T19:15:55.372Z,41.99
2018-02-19T19:18:23.761Z,42.38
2018-02-19T19:20:52.536Z,41.93
2018-02-19T19:23:20.948Z,42.08
2018-02-19T19:25:49.314Z,41.70
2018-02-19T19:28:17.663Z,41.46
2018-02-19T19:30:46.077Z,41.66
2018-02-19T19:33:14.572Z,41.98
2018-02-19T19:35:42.935Z,42.56
2018-02-19T19:38:11.309Z,42.10
2018-02-19T19:40:39.673Z,42.65
2018-02-19T19:43:08.045Z,42.51
2018-02-19T19:45:36.411Z,41.67
2018-02-19T19:48:04.769Z,42.42
2018-02-19T19:50:33.595Z,42.70
2018-02-19T19:53:01.959Z,43.09
2018-02-19T19:55:30.341Z,43.00
2018-02-19T19:57:58.717Z,43.63
2018-02-19T20:00:27.082Z,43.84
2018-02-19T20:02:55.925Z,43.72
2018-02-19T20:05:24.424Z,43.68
2018-02-19T20:07:52.783Z,43.50
2018-02-19T20:10:21.230Z,42.96
2018-02-19T20:12:49.586Z,43.11
2018-02-19T20:15:18.326Z,42.89
2018-02-19T20:17:46.696Z,43.24
2018-02-19T20:20:15.061Z,43.27
2018-02-19T20:22:43.466Z,43.22
2018-02-19T20:25:11.825Z,43.57
2018-02-19T20:27:40.173Z,43.14
2018-02-19T20:30:08.592Z,43.56
2018-02-19T20:32:36.953Z,43.71
2018-02-19T20:35:05.325Z,43.73
2018-02-19T20:37:33.681Z,43.35
2018-02-19T20:40:02.424Z,43.42
2018-02-19T20:42:30.803Z,43.75
2018-02-19T20:44:59.164Z,43.74
2018-02-19T20:47:27.508Z,43.54
2018-02-19T20:49:56.273Z,44.02
2018-02-19T20:52:25.029Z,44.33
2018-02-19T20:54:53.596Z,43.80
2018-02-19T20:57:21.992Z,43.95
2018-02-19T20:59:50.369Z,44.29
2018-02-19T21:02:18.720Z,44.14
2018-02-19T21:04:47.320Z,44.44
2018-02-19T21:07:15.679Z,44.88
2018-02-19T21:09:44.090Z,44.77
2018-02-19T21:12:12.454Z,44.85
2018-02-19T21:14:40.832Z,45.38
2018-02-19T21:17:09.203Z,45.27
2018-02-19T21:19:37.573Z,44.95
2018-02-19T21:22:05.927Z,45.05
2018-02-19T21:24:34.677Z,45.16
2018-02-19T21:27:03.056Z,45.61
2018-02-19T21:29:31.395Z,45.48
2018-02-19T21:31:59.754Z,45.22
2018-02-19T21:34:28.668Z,45.25
2018-02-19T21:36:57.050Z,45.96
2018-02-19T21:39:25.428Z,45.65
2018-02-19T21:41:53.886Z,46.08
2018-02-19T21:44:22.671Z,46.59
2018-02-19T21:46:51.412Z,45.73
2018-02-19T21:49:19.768Z,44.89
2018-02-19T21:51:48.175Z,45.13
2018-02-19T21:54:16.972Z,46.06
2018-02-19T21:56:45.332Z,46.14
2018-02-19T21:59:13.724Z,45.19
2018-02-19T22:01:42.096Z,45.42
2018-02-19T22:04:10.463Z,44.86
2018-02-19T22:06:38.832Z,44.28
2018-02-19T22:09:07.196Z,44.41
2018-02-19T22:11:35.550Z,43.93
2018-02-19T22:14:04.316Z,44.56
2018-02-19T22:16:32.771Z,44.98
2018-02-19T22:19:01.161Z,45.49
2018-02-19T22:21:29.533Z,45.89
2018-02-19T22:23:57.896Z,45.74
2018-02-19T22:26:26.256Z,45.57
2018-02-19T22:28:54.614Z,45.28
2018-02-19T22:31:23.473Z,46.00
2018-02-19T22:33:51.832Z,46.22
2018-02-19T22:36:20.208Z,47.25
2018-02-19T22:38:48.580Z,47.73
2018-02-19T22:41:16.936Z,46.89
2018-02-19T22:43:45.347Z,46.46
2018-02-19T22:46:13.896Z,47.00
2018-02-19T22:48:42.276Z,47.19
2018-02-19T22:51:10.639Z,47.97
2018-02-19T22:53:39.412Z,47.13
2018-02-19T22:56:07.808Z,47.16
2018-02-19T22:58:36.601Z,46.78
2018-02-19T23:01:04.933Z,48.42
2018-02-19T23:03:33.299Z,48.74
2018-02-19T23:06:01.656Z,47.80
2018-02-19T23:08:30.023Z,47.24
2018-02-19T23:10:58.373Z,47.72
2018-02-19T23:13:28.012Z,48.89
2018-02-19T23:15:56.421Z,48.53
2018-02-19T23:18:24.923Z,47.52
2018-02-19T23:20:53.376Z,47.09
2018-02-19T23:23:21.769Z,48.19
2018-02-19T23:25:50.128Z,47.89
2018-02-19T23:28:18.555Z,47.72
2018-02-19T23:30:47.407Z,47.84
2018-02-19T23:33:15.804Z,47.33
2018-02-19T23:35:44.177Z,47.85
2018-02-19T23:38:12.602Z,47.72
2018-02-19T23:40:41.452Z,47.39
2018-02-19T23:43:09.837Z,47.74
2018-02-19T23:45:38.309Z,48.78
2018-02-19T23:48:06.672Z,47.79
2018-02-19T23:50:35.025Z,48.07
2018-02-19T23:53:03.403Z,48.36
2018-02-19T23:55:32.271Z,48.64
2018-02-19T23:58:01.784Z,48.91
